Time;durP1;ratioP1;P1;durP2;ratioP2;P2;SDS_P1;SDS_P2;PMS_P1;PMS_P2;Temp;Humidity;BMP_temperature;BMP_pressure;BME280_temperature;BME280_humidity;BME280_pressure;Samples;Min_cycle;Max_cycle;Signal;HPM_P1;HPM_P2
2024/01/05 00:01:24;;;;;;;;;;;;;;;3.49;100.00;95446.41;5083476;28;19939;-73
2024/01/05 00:03:50;;;;;;;;;;;;;;;3.47;100.00;95456.97;5083933;28;19960;-74
2024/01/05 00:06:16;;;;;;;;;;;;;;;3.47;100.00;95453.56;5083468;28;19978;-73
2024/01/05 00:08:41;;;;;;;;;;;;;;;3.43;100.00;95450.56;5083347;28;19954;-73
2024/01/05 00:11:07;;;;;;;;;;;;;;;3.41;100.00;95442.19;5083191;28;20161;-73
2024/01/05 00:13:33;;;;;;;;;;;;;;;3.39;100.00;95447.56;5083278;28;20008;-72
2024/01/05 00:15:59;;;;;;;;;;;;;;;3.39;100.00;95459.72;5083735;28;20170;-83
2024/01/05 00:18:26;;;;;;;;;;;;;;;3.38;100.00;95452.94;5083910;28;19936;-72
2024/01/05 00:20:52;;;;;;;;;;;;;;;3.38;100.00;95456.34;5083194;28;19947;-73
2024/01/05 00:23:18;;;;;;;;;;;;;;;3.36;100.00;95444.56;5083104;28;19958;-72
2024/01/05 00:25:44;;;;;;;;;;;;;;;3.33;100.00;95447.56;5083042;28;20004;-72
2024/01/05 00:28:09;;;;;;;;;;;;;;;3.32;100.00;95445.94;5083869;28;20013;-72
2024/01/05 00:30:35;;;;;;;;;;;;;;;3.29;100.00;95447.16;5087548;28;19942;-72
2024/01/05 00:33:01;;;;;;;;;;;;;;;3.28;100.00;95448.16;5086664;28;19980;-74
2024/01/05 00:35:27;;;;;;;;;;;;;;;3.25;100.00;95441.56;5086758;28;20133;-71
2024/01/05 00:37:53;;;;;;;;;;;;;;;3.25;100.00;95451.13;5086859;28;20221;-69
2024/01/05 00:40:19;;;;;;;;;;;;;;;3.24;100.00;95442.56;5087297;28;20238;-69
2024/01/05 00:42:45;;;;;;;;;;;;;;;3.23;100.00;95442.75;5085338;28;19943;-70
2024/01/05 00:45:11;;;;;;;;;;;;;;;3.21;100.00;95439.56;5086349;28;19960;-69
2024/01/05 00:47:45;;;;;;;;;;;;;;;3.19;100.00;95444.94;5086481;28;20235;-70
2024/01/05 00:50:10;;;;;;;;;;;;;;;3.18;100.00;95453.69;5086387;28;19945;-70
2024/01/05 00:52:36;;;;;;;;;;;;;;;3.18;100.00;95445.13;5086929;28;19941;-84
2024/01/05 00:55:02;;;;;;;;;;;;;;;3.18;100.00;95434.78;5086207;28;19961;-86
2024/01/05 00:57:29;;;;;;;;;;;;;;;3.18;100.00;95429.59;5087068;28;19944;-86
2024/01/05 00:59:55;;;;;;;;;;;;;;;3.18;100.00;95429.59;5086238;28;19951;-83
2024/01/05 01:02:21;;;;;;;;;;;;;;;3.17;100.00;95423.63;5086720;28;19939;-88
2024/01/05 01:04:47;;;;;;;;;;;;;;;3.19;100.00;95424.22;5086775;28;19953;-84
2024/01/05 01:07:12;;;;;;;;;;;;;;;3.20;100.00;95437.97;5086040;28;20032;-85
2024/01/05 01:09:38;;;;;;;;;;;;;;;3.21;100.00;95432.59;5085807;28;19975;-74
2024/01/05 01:12:04;;;;;;;;;;;;;;;3.22;100.00;95430.81;5085975;28;20018;-70
2024/01/05 01:14:30;;;;;;;;;;;;;;;3.22;100.00;95436.78;5085919;28;20028;-66
2024/01/05 01:16:56;;;;;;;;;;;;;;;3.23;100.00;95442.75;5086078;28;19940;-67
2024/01/05 01:19:22;;;;;;;;;;;;;;;3.20;100.00;95435.38;5084786;28;19945;-66
2024/01/05 01:21:47;;;;;;;;;;;;;;;3.18;100.00;95421.81;5086782;28;19993;-67
2024/01/05 01:24:13;;;;;;;;;;;;;;;3.17;100.00;95421.03;5085751;28;20013;-67
2024/01/05 01:26:39;;;;;;;;;;;;;;;3.18;100.00;95409.66;5085750;28;19939;-67
2024/01/05 01:29:06;;;;;;;;;;;;;;;3.18;100.00;95417.44;5085719;28;20233;-74
2024/01/05 01:31:32;;;;;;;;;;;;;;;3.19;100.00;95413.03;5085717;28;19940;-73
2024/01/05 01:33:58;;;;;;;;;;;;;;;3.18;100.00;95409.66;5086285;28;20001;-73
2024/01/05 01:36:24;;;;;;;;;;;;;;;3.20;100.00;95399.09;5085589;28;19942;-72
2024/01/05 01:38:49;;;;;;;;;;;;;;;3.21;100.00;95391.16;5085848;28;19939;-72
2024/01/05 01:41:15;;;;;;;;;;;;;;;3.22;100.00;95384.97;5085733;28;19939;-72
2024/01/05 01:43:45;;;;;;;;;;;;;;;3.23;100.00;95378.78;5085440;28;20289;-72
2024/01/05 01:46:11;;;;;;;;;;;;;;;3.24;100.00;95377.78;5085360;28;20129;-74
2024/01/05 01:48:37;;;;;;;;;;;;;;;3.27;100.00;95373.22;5086189;28;19945;-75
2024/01/05 01:51:03;;;;;;;;;;;;;;;3.29;100.00;95371.22;5085242;28;20181;-67
2024/01/05 01:53:29;;;;;;;;;;;;;;;3.32;100.00;95370.81;5084360;28;20014;-67
2024/01/05 01:55:55;;;;;;;;;;;;;;;3.34;100.00;95372.22;5085658;28;19948;-67
2024/01/05 01:58:21;;;;;;;;;;;;;;;3.36;100.00;95365.06;5085914;28;19941;-66
2024/01/05 02:00:47;;;;;;;;;;;;;;;3.39;100.00;95361.25;5085569;28;19942;-67
2024/01/05 02:03:13;;;;;;;;;;;;;;;3.40;100.00;95366.25;5085551;28;19938;-67
2024/01/05 02:05:40;;;;;;;;;;;;;;;3.42;100.00;95368.63;5084880;28;20269;-87
2024/01/05 02:08:07;;;;;;;;;;;;;;;3.45;100.00;95360.47;5084850;28;19948;-71
2024/01/05 02:10:32;;;;;;;;;;;;;;;3.47;100.00;95358.47;5084891;28;20150;-71
2024/01/05 02:12:59;;;;;;;;;;;;;;;3.48;100.00;95365.22;5084776;28;19940;-71
2024/01/05 02:15:25;;;;;;;;;;;;;;;3.49;100.00;95361.66;5084797;28;19960;-70
2024/01/05 02:18:14;;;;;;;;;;;;;;;3.47;100.00;95340.31;5084570;28;19955;-70
2024/01/05 02:20:44;;;;;;;;;;;;;;;3.47;100.00;95337.72;5084702;28;20218;-70
2024/01/05 02:23:26;;;;;;;;;;;;;;;3.46;100.00;95343.91;5085445;28;19936;-73
2024/01/05 02:25:53;;;;;;;;;;;;;;;3.43;100.00;95341.72;5085155;28;20225;-75
2024/01/05 02:28:19;;;;;;;;;;;;;;;3.42;100.00;95346.13;5084547;28;19940;-72
2024/01/05 02:30:45;;;;;;;;;;;;;;;3.43;100.00;95344.31;5083945;28;19948;-72
2024/01/05 02:33:11;;;;;;;;;;;;;;;3.42;100.00;95346.13;5084471;28;19936;-71
2024/01/05 02:35:37;;;;;;;;;;;;;;;3.43;100.00;95341.72;5085257;28;19939;-71
2024/01/05 02:38:03;;;;;;;;;;;;;;;3.43;100.00;95345.09;5084396;28;20124;-71
2024/01/05 02:40:29;;;;;;;;;;;;;;;3.44;100.00;95349.31;5084375;28;19943;-71
2024/01/05 02:42:55;;;;;;;;;;;;;;;3.44;100.00;95343.31;5085169;28;20003;-70
2024/01/05 02:45:21;;;;;;;;;;;;;;;3.44;100.00;95338.13;5084574;28;19950;-73
2024/01/05 02:47:48;;;;;;;;;;;;;;;3.43;100.00;95339.13;5084227;28;19933;-73
2024/01/05 02:50:15;;;;;;;;;;;;;;;3.44;100.00;95325.97;5083900;28;19942;-72
2024/01/05 02:52:41;;;;;;;;;;;;;;;3.45;100.00;95330.16;5084023;28;19944;-72
2024/01/05 02:55:07;;;;;;;;;;;;;;;3.47;100.00;95318.81;5084143;28;19946;-72
2024/01/05 02:57:33;;;;;;;;;;;;;;;3.47;100.00;95326.56;5084259;28;19936;-73
2024/01/05 02:59:59;;;;;;;;;;;;;;;3.47;100.00;95329.16;5084760;28;20247;-86
2024/01/05 03:02:24;;;;;;;;;;;;;;;3.47;100.00;95329.97;5084165;28;19947;-67
2024/01/05 03:04:51;;;;;;;;;;;;;;;3.45;100.00;95327.56;5083956;28;19958;-74
2024/01/05 03:07:18;;;;;;;;;;;;;;;3.44;100.00;95323.38;5084830;28;20114;-74
2024/01/05 03:09:43;;;;;;;;;;;;;;;3.42;100.00;95320.19;5083777;28;19974;-74
2024/01/05 03:12:09;;;;;;;;;;;;;;;3.40;100.00;95318.78;5083945;28;19941;-74
2024/01/05 03:14:35;;;;;;;;;;;;;;;3.39;100.00;95306.84;5083944;28;19939;-74
2024/01/05 03:17:02;;;;;;;;;;;;;;;3.33;100.00;95297.28;5083903;28;19933;-74
2024/01/05 03:19:28;;;;;;;;;;;;;;;3.31;100.00;95292.28;5083924;28;20036;-71
2024/01/05 03:21:54;;;;;;;;;;;;;;;3.32;100.00;95293.06;5083894;28;19940;-74
2024/01/05 03:24:20;;;;;;;;;;;;;;;3.32;100.00;95290.47;5083766;28;20223;-74
2024/01/05 03:26:46;;;;;;;;;;;;;;;3.32;100.00;95283.53;5083845;28;19941;-74
2024/01/05 03:29:12;;;;;;;;;;;;;;;3.34;100.00;95285.91;5084102;28;19940;-74
2024/01/05 03:31:38;;;;;;;;;;;;;;;3.33;100.00;95292.88;5083810;28;20246;-74
2024/01/05 03:34:04;;;;;;;;;;;;;;;3.36;100.00;95282.13;5084561;28;19941;-74
2024/01/05 03:36:29;;;;;;;;;;;;;;;3.38;100.00;95289.69;5083695;28;19936;-74
2024/01/05 03:38:55;;;;;;;;;;;;;;;3.40;100.00;95283.31;5083798;28;20003;-69
2024/01/05 03:41:21;;;;;;;;;;;;;;;3.41;100.00;95284.91;5083729;28;19967;-83
2024/01/05 03:43:47;;;;;;;;;;;;;;;3.43;100.00;95289.91;5083588;28;20133;-85
2024/01/05 03:46:13;;;;;;;;;;;;;;;3.39;100.00;95289.50;5083667;28;19939;-84
2024/01/05 03:48:39;;;;;;;;;;;;;;;3.37;100.00;95286.31;5084412;28;19939;-86
2024/01/05 03:51:05;;;;;;;;;;;;;;;3.38;100.00;95284.50;5083048;28;19945;-86
2024/01/05 03:53:31;;;;;;;;;;;;;;;3.39;100.00;95286.09;5083689;28;19951;-89
2024/01/05 03:55:57;;;;;;;;;;;;;;;3.40;100.00;95290.28;5084409;28;19941;-67
2024/01/05 03:58:23;;;;;;;;;;;;;;;3.43;100.00;95288.09;5083803;28;19942;-74
2024/01/05 04:00:49;;;;;;;;;;;;;;;3.45;100.00;95287.91;5081711;28;19943;-75
2024/01/05 04:03:16;;;;;;;;;;;;;;;3.45;100.00;95291.28;5085961;28;19953;-74
2024/01/05 04:05:43;;;;;;;;;;;;;;;3.47;100.00;95288.50;5087205;28;19959;-74
2024/01/05 04:08:09;;;;;;;;;;;;;;;3.48;100.00;95279.72;5087122;28;20157;-75
2024/01/05 04:10:35;;;;;;;;;;;;;;;3.51;100.00;95278.50;5087026;28;19977;-74
2024/01/05 04:13:02;;;;;;;;;;;;;;;3.50;100.00;95267.34;5087924;28;19942;-74
2024/01/05 04:15:28;;;;;;;;;;;;;;;3.52;100.00;95267.16;5087119;28;19936;-87
2024/01/05 04:17:53;;;;;;;;;;;;;;;3.51;100.00;95256.00;5087068;28;19983;-67
2024/01/05 04:20:19;;;;;;;;;;;;;;;3.49;100.00;95244.25;5087542;28;20095;-66
2024/01/05 04:22:45;;;;;;;;;;;;;;;3.49;100.00;95252.81;5086965;28;19948;-67
2024/01/05 04:25:11;;;;;;;;;;;;;;;3.50;100.00;95254.38;5086851;28;20003;-66
2024/01/05 04:27:37;;;;;;;;;;;;;;;3.51;100.00;95240.44;5086842;28;19940;-67
2024/01/05 04:30:04;;;;;;;;;;;;;;;3.52;100.00;95246.41;5086790;28;19937;-67
2024/01/05 04:32:31;;;;;;;;;;;;;;;3.53;100.00;95248.00;5086856;28;20239;-74
2024/01/05 04:34:57;;;;;;;;;;;;;;;3.53;100.00;95237.63;5086767;28;19936;-72
2024/01/05 04:37:23;;;;;;;;;;;;;;;3.51;100.00;95232.66;5086642;28;19955;-74
2024/01/05 04:39:49;;;;;;;;;;;;;;;3.51;100.00;95237.03;5086614;28;19934;-75
2024/01/05 04:42:15;;;;;;;;;;;;;;;3.50;100.00;95241.44;5086630;28;20010;-74
2024/01/05 04:44:41;;;;;;;;;;;;;;;3.53;100.00;95240.22;5086474;28;19961;-74
2024/01/05 04:47:07;;;;;;;;;;;;;;;3.53;100.00;95246.22;5086514;28;19939;-74
2024/01/05 04:49:33;;;;;;;;;;;;;;;3.54;100.00;95244.41;5086515;28;19943;-74
2024/01/05 04:52:00;;;;;;;;;;;;;;;3.54;100.00;95241.81;5085386;28;20224;-69
2024/01/05 04:54:26;;;;;;;;;;;;;;;3.54;100.00;95228.88;5086417;28;19936;-67
2024/01/05 04:56:52;;;;;;;;;;;;;;;3.54;100.00;95231.44;5085966;28;19941;-67
2024/01/05 04:59:19;;;;;;;;;;;;;;;3.55;100.00;95225.25;5086312;28;19937;-66
2024/01/05 05:01:45;;;;;;;;;;;;;;;3.55;100.00;95231.25;5085044;28;19950;-66
2024/01/05 05:04:13;;;;;;;;;;;;;;;3.56;100.00;95222.47;5086109;28;19971;-67
2024/01/05 05:06:39;;;;;;;;;;;;;;;3.57;100.00;95215.47;5086681;28;20109;-67
2024/01/05 05:09:05;;;;;;;;;;;;;;;3.58;100.00;95238.63;5085866;28;20024;-67
2024/01/05 05:11:31;;;;;;;;;;;;;;;3.59;100.00;95242.00;5086174;28;19943;-74
2024/01/05 05:13:56;;;;;;;;;;;;;;;3.59;100.00;95240.22;5085206;28;19931;-70
2024/01/05 05:16:22;;;;;;;;;;;;;;;3.60;100.00;95235.81;5085927;28;19940;-70
2024/01/05 05:18:49;;;;;;;;;;;;;;;3.59;100.00;95229.03;5085850;28;19935;-69
2024/01/05 05:21:15;;;;;;;;;;;;;;;3.59;100.00;95227.25;5085820;28;19936;-70
2024/01/05 05:23:42;;;;;;;;;;;;;;;3.58;100.00;95223.06;5085774;28;20125;-70
2024/01/05 05:26:07;;;;;;;;;;;;;;;3.57;100.00;95220.66;5085896;28;19952;-70
2024/01/05 05:28:33;;;;;;;;;;;;;;;3.55;100.00;95220.88;5085748;28;19940;-74
2024/01/05 05:30:59;;;;;;;;;;;;;;;3.52;100.00;95205.72;5085225;28;19989;-74
2024/01/05 05:33:25;;;;;;;;;;;;;;;3.50;100.00;95207.72;5086415;28;19944;-73
2024/01/05 05:35:51;;;;;;;;;;;;;;;3.50;100.00;95212.13;5085537;28;19943;-74
2024/01/05 05:38:17;;;;;;;;;;;;;;;3.50;100.00;95219.91;5085458;28;19935;-73
2024/01/05 05:40:43;;;;;;;;;;;;;;;3.48;100.00;95212.31;5085206;28;19940;-74
2024/01/05 05:43:08;;;;;;;;;;;;;;;3.44;100.00;95214.53;5085375;28;20226;-73
2024/01/05 05:45:35;;;;;;;;;;;;;;;3.43;100.00;95212.16;5085251;28;19957;-74
2024/01/05 05:48:00;;;;;;;;;;;;;;;3.43;100.00;95217.34;5085271;28;19937;-70
2024/01/05 05:50:26;;;;;;;;;;;;;;;3.42;100.00;95219.13;5085514;28;20221;-92
2024/01/05 05:52:53;;;;;;;;;;;;;;;3.40;100.00;95218.53;5085230;28;19944;-92
2024/01/05 05:55:19;;;;;;;;;;;;;;;3.39;100.00;95206.56;5085961;28;20248;-91
2024/01/05 05:57:45;;;;;;;;;;;;;;;3.39;100.00;95214.34;5085615;28;19936;-92
2024/01/05 06:00:11;;;;;;;;;;;;;;;3.39;100.00;95211.75;5085087;28;19971;-94
2024/01/05 06:02:38;;;;;;;;;;;;;;;3.40;100.00;95209.94;5085506;28;19943;-92
2024/01/05 06:05:04;;;;;;;;;;;;;;;3.42;100.00;95221.72;5085035;28;19955;-67
2024/01/05 06:07:30;;;;;;;;;;;;;;;3.42;100.00;95215.72;5084997;28;19948;-68
2024/01/05 06:09:57;;;;;;;;;;;;;;;3.42;100.00;95210.53;5084702;28;19970;-68
2024/01/05 06:12:23;;;;;;;;;;;;;;;3.43;100.00;95212.16;5084804;28;19962;-68
2024/01/05 06:14:49;;;;;;;;;;;;;;;3.44;100.00;95230.09;5084810;28;20223;-68
2024/01/05 06:17:15;;;;;;;;;;;;;;;3.47;100.00;95230.69;5084738;28;19942;-68
2024/01/05 06:19:40;;;;;;;;;;;;;;;3.50;100.00;95238.03;5085230;28;19940;-68
2024/01/05 06:22:07;;;;;;;;;;;;;;;3.52;100.00;95236.03;5084669;28;19941;-70
2024/01/05 06:24:33;;;;;;;;;;;;;;;3.52;100.00;95226.47;5084551;28;20125;-71
2024/01/05 06:26:59;;;;;;;;;;;;;;;3.53;100.00;95224.66;5084536;28;19944;-74
2024/01/05 06:29:25;;;;;;;;;;;;;;;3.55;100.00;95233.84;5084521;28;19936;-74
2024/01/05 06:31:51;;;;;;;;;;;;;;;3.57;100.00;95233.63;5084485;28;19949;-75
2024/01/05 06:34:17;;;;;;;;;;;;;;;3.58;100.00;95227.47;5084452;28;19973;-74
2024/01/05 06:36:43;;;;;;;;;;;;;;;3.58;100.00;95222.28;5084672;28;19945;-74
2024/01/05 06:39:09;;;;;;;;;;;;;;;3.58;100.00;95223.06;5085200;28;19939;-74
2024/01/05 06:41:34;;;;;;;;;;;;;;;3.59;100.00;95218.66;5084326;28;19942;-67
2024/01/05 06:44:00;;;;;;;;;;;;;;;3.58;100.00;95215.28;5083217;28;19937;-71
2024/01/05 06:46:27;;;;;;;;;;;;;;;3.55;100.00;95217.47;5084166;28;19976;-71
2024/01/05 06:48:53;;;;;;;;;;;;;;;3.55;100.00;95223.47;5084199;28;19949;-71
2024/01/05 06:51:19;;;;;;;;;;;;;;;3.57;100.00;95233.63;5084418;28;19941;-71
2024/01/05 06:53:44;;;;;;;;;;;;;;;3.59;100.00;95236.81;5084179;28;19997;-70
2024/01/05 06:56:12;;;;;;;;;;;;;;;3.59;100.00;95239.41;5083709;28;20351;-71
2024/01/05 06:58:38;;;;;;;;;;;;;;;3.60;100.00;95239.22;5084085;28;19990;-71
2024/01/05 07:01:04;;;;;;;;;;;;;;;3.62;100.00;95236.41;5084397;28;19945;-67
2024/01/05 07:03:30;;;;;;;;;;;;;;;3.62;100.00;95250.16;5084086;28;19952;-70
2024/01/05 07:05:56;;;;;;;;;;;;;;;3.62;100.00;95241.59;5083897;28;20245;-71
2024/01/05 07:08:22;;;;;;;;;;;;;;;3.58;100.00;95230.84;5083975;28;19999;-71
2024/01/05 07:10:48;;;;;;;;;;;;;;;3.57;100.00;95220.66;5083817;28;19968;-70
2024/01/05 07:13:14;;;;;;;;;;;;;;;3.56;100.00;95230.25;5083937;28;19945;-71
2024/01/05 07:15:39;;;;;;;;;;;;;;;3.71;100.00;95231.81;5083846;28;19946;-70
2024/01/05 07:18:06;;;;;;;;;;;;;;;3.74;100.00;95223.59;5083899;28;19943;-74
2024/01/05 07:20:32;;;;;;;;;;;;;;;3.76;100.00;95226.78;5083626;28;19939;-71
2024/01/05 07:22:58;;;;;;;;;;;;;;;3.77;100.00;95236.19;5084298;28;19942;-67
2024/01/05 07:25:25;;;;;;;;;;;;;;;3.77;100.00;95234.38;5084559;28;19951;-67
2024/01/05 07:27:50;;;;;;;;;;;;;;;3.74;100.00;95228.78;5083807;28;19936;-67
2024/01/05 07:30:16;;;;;;;;;;;;;;;3.72;100.00;95233.41;5084063;28;19941;-67
2024/01/05 07:33:02;;;;;;;;;;;;;;;3.77;100.00;95236.19;5082607;28;19940;-67
2024/01/05 07:35:28;;;;;;;;;;;;;;;3.79;100.00;95237.56;5082633;28;19935;-67
2024/01/05 07:37:54;;;;;;;;;;;;;;;3.77;100.00;95226.59;5085765;28;20113;-70
2024/01/05 07:40:21;;;;;;;;;;;;;;;3.79;100.00;95231.56;5087833;28;20216;-75
2024/01/05 07:42:47;;;;;;;;;;;;;;;4.10;100.00;95238.63;5088501;28;19941;-74
2024/01/05 07:45:13;;;;;;;;;;;;;;;4.61;100.00;95232.56;5087600;28;19956;-77
2024/01/05 07:47:47;;;;;;;;;;;;;;;4.74;100.00;95242.06;5087700;28;19952;-77
2024/01/05 07:50:14;;;;;;;;;;;;;;;4.67;100.00;95230.94;5087573;28;19942;-77
2024/01/05 07:52:40;;;;;;;;;;;;;;;4.55;100.00;95222.22;5087263;28;19943;-77
2024/01/05 07:55:09;;;;;;;;;;;;;;;4.42;100.00;95229.06;5087517;28;19943;-69
2024/01/05 07:57:35;;;;;;;;;;;;;;;4.31;100.00;95229.75;5087755;28;19943;-77
2024/01/05 08:00:01;;;;;;;;;;;;;;;4.22;100.00;95234.41;5087378;28;19968;-76
2024/01/05 08:02:27;;;;;;;;;;;;;;;4.15;100.00;95231.03;5087417;28;20224;-77
2024/01/05 08:04:53;;;;;;;;;;;;;;;4.12;100.00;95235.84;5086937;28;19983;-77
2024/01/05 08:07:19;;;;;;;;;;;;;;;4.05;100.00;95225.47;5087288;28;19945;-77
2024/01/05 08:09:45;;;;;;;;;;;;;;;4.00;100.00;95225.31;5086974;28;19966;-76
2024/01/05 08:12:11;;;;;;;;;;;;;;;4.15;100.00;95225.03;5087133;28;19983;-77
2024/01/05 08:14:37;;;;;;;;;;;;;;;4.40;100.00;95225.09;5087167;28;20143;-76
2024/01/05 08:17:03;;;;;;;;;;;;;;;4.66;100.00;95217.16;5087078;28;19985;-70
2024/01/05 08:19:29;;;;;;;;;;;;;;;4.75;100.00;95220.28;5087000;28;19936;-70
2024/01/05 08:21:55;;;;;;;;;;;;;;;4.72;100.00;95214.72;5087500;28;19936;-70
2024/01/05 08:24:21;;;;;;;;;;;;;;;4.67;100.00;95216.13;5086948;28;19986;-70
2024/01/05 08:26:47;;;;;;;;;;;;;;;4.62;100.00;95217.75;5087356;28;19951;-70
2024/01/05 08:29:13;;;;;;;;;;;;;;;4.57;100.00;95222.81;5086845;28;20126;-71
2024/01/05 08:31:39;;;;;;;;;;;;;;;4.52;100.00;95220.06;5087374;28;19941;-70
2024/01/05 08:34:05;;;;;;;;;;;;;;;4.47;100.00;95221.47;5087319;28;19944;-76
2024/01/05 08:36:31;;;;;;;;;;;;;;;4.45;100.00;95217.47;5087566;28;20106;-70
2024/01/05 08:38:57;;;;;;;;;;;;;;;4.41;100.00;95217.13;5087181;28;19941;-69
2024/01/05 08:41:22;;;;;;;;;;;;;;;4.40;100.00;95219.91;5087165;28;19963;-70
2024/01/05 08:43:49;;;;;;;;;;;;;;;4.39;100.00;95215.72;5086574;28;19989;-70
2024/01/05 08:46:14;;;;;;;;;;;;;;;4.38;100.00;95214.13;5086449;28;19997;-70
2024/01/05 08:48:42;;;;;;;;;;;;;;;4.37;100.00;95212.56;5085316;28;19945;-70
2024/01/05 08:51:08;;;;;;;;;;;;;;;4.34;100.00;95213.75;5087241;28;19943;-72
2024/01/05 08:53:34;;;;;;;;;;;;;;;4.33;100.00;95225.16;5086460;28;19959;-71
2024/01/05 08:56:00;;;;;;;;;;;;;;;4.33;100.00;95226.97;5086365;28;19943;-70
2024/01/05 08:58:26;;;;;;;;;;;;;;;4.33;100.00;95221.75;5087085;28;19933;-70
2024/01/05 09:00:52;;;;;;;;;;;;;;;4.33;100.00;95224.38;5086293;28;19937;-72
2024/01/05 09:03:20;;;;;;;;;;;;;;;4.35;100.00;95215.34;5087035;28;19936;-71
2024/01/05 09:05:46;;;;;;;;;;;;;;;4.37;100.00;95225.53;5086636;28;19960;-70
2024/01/05 09:08:12;;;;;;;;;;;;;;;4.41;100.00;95221.50;5086094;28;19959;-72
2024/01/05 09:10:38;;;;;;;;;;;;;;;4.46;100.00;95217.28;5086006;28;20176;-79
2024/01/05 09:13:04;;;;;;;;;;;;;;;4.46;100.00;95206.09;5086527;28;19943;-73
2024/01/05 09:15:29;;;;;;;;;;;;;;;4.50;100.00;95211.69;5084853;28;19943;-72
2024/01/05 09:17:55;;;;;;;;;;;;;;;4.53;100.00;95229.41;5086019;28;20275;-74
2024/01/05 09:20:21;;;;;;;;;;;;;;;4.53;100.00;95225.00;5085873;28;19939;-73
2024/01/05 09:22:47;;;;;;;;;;;;;;;4.55;100.00;95240.38;5086343;28;19936;-72
2024/01/05 09:25:13;;;;;;;;;;;;;;;4.55;100.00;95233.38;5085738;28;19961;-73
2024/01/05 09:27:41;;;;;;;;;;;;;;;4.59;100.00;95239.75;5086316;28;19935;-74
2024/01/05 09:30:07;;;;;;;;;;;;;;;4.65;100.00;95246.72;5085641;28;19964;-70
2024/01/05 09:32:33;;;;;;;;;;;;;;;4.73;100.00;95247.47;5085700;28;19940;-71
2024/01/05 09:34:59;;;;;;;;;;;;;;;4.78;100.00;95252.81;5085635;28;19941;-70
2024/01/05 09:37:25;;;;;;;;;;;;;;;4.81;100.00;95248.00;5085575;28;20232;-70
2024/01/05 09:40:11;;;;;;;;;;;;;;;4.83;100.00;95259.00;5084390;28;19943;-70
2024/01/05 09:42:57;;;;;;;;;;;;;;;4.88;100.00;95263.53;5085338;28;20132;-70
2024/01/05 09:45:44;;;;;;;;;;;;;;;4.95;100.00;95256.47;5084280;28;19955;-69
2024/01/05 09:48:30;;;;;;;;;;;;;;;4.99;100.00;95255.06;5085109;28;19938;-74
2024/01/05 09:51:16;;;;;;;;;;;;;;;5.06;100.00;95249.81;5084425;28;19945;-74
2024/01/05 09:54:02;;;;;;;;;;;;;;;5.09;100.00;95252.00;5084107;28;19956;-74
2024/01/05 09:56:48;;;;;;;;;;;;;;;5.12;100.00;95241.16;5084980;28;19964;-74
2024/01/05 09:59:34;;;;;;;;;;;;;;;5.12;100.00;95237.78;5083730;28;19953;-75
2024/01/05 10:02:31;;;;;;;;;;;;;;;5.13;100.00;95237.56;5084803;28;19961;-74
2024/01/05 10:05:17;;;;;;;;;;;;;;;5.13;100.00;95236.78;5084878;28;19953;-73
2024/01/05 10:08:04;;;;;;;;;;;;;;;5.15;100.00;95243.34;5083793;28;19967;-69
2024/01/05 10:10:58;;;;;;;;;;;;;;;5.16;100.00;95247.53;5083558;28;19969;-68
2024/01/05 10:13:54;;;;;;;;;;;;;;;5.18;100.00;95242.91;5084758;28;19961;-69
2024/01/05 10:16:40;;;;;;;;;;;;;;;5.21;100.00;95249.50;5083659;28;19943;-69
2024/01/05 10:19:26;;;;;;;;;;;;;;;5.24;100.00;95251.66;5083936;28;19943;-69
2024/01/05 10:22:12;;;;;;;;;;;;;;;5.28;100.00;95238.03;5083561;28;19941;-73
2024/01/05 10:25:12;;;;;;;;;;;;;;;5.34;100.00;95249.38;5084407;28;20213;-74
2024/01/05 10:27:59;;;;;;;;;;;;;;;5.43;100.00;95236.91;5083395;28;19946;-75
2024/01/05 10:30:44;;;;;;;;;;;;;;;5.48;100.00;95237.03;5083709;28;19946;-75
2024/01/05 10:33:31;;;;;;;;;;;;;;;5.56;100.00;95225.56;5083333;28;19938;-75
2024/01/05 10:36:24;;;;;;;;;;;;;;;5.63;100.00;95227.09;5084303;28;20235;-75
2024/01/05 10:39:10;;;;;;;;;;;;;;;5.71;100.00;95220.78;5084276;28;20213;-75
2024/01/05 10:42:13;;;;;;;;;;;;;;;5.79;100.00;95211.91;5083198;28;19941;-69
2024/01/05 10:45:01;;;;;;;;;;;;;;;5.87;100.00;95206.41;5083381;28;19944;-78
2024/01/05 10:47:47;;;;;;;;;;;;;;;5.95;100.00;95192.34;5083467;28;20001;-78
2024/01/05 10:50:37;;;;;;;;;;;;;;;6.03;100.00;95194.66;5083107;28;19947;-78
2024/01/05 10:53:23;;;;;;;;;;;;;;;6.11;100.00;95194.34;5083657;28;19951;-78
2024/01/05 10:56:09;;;;;;;;;;;;;;;6.17;100.00;95196.03;5084035;28;19939;-78
2024/01/05 10:58:55;;;;;;;;;;;;;;;6.20;100.00;95197.44;5083975;28;19942;-75
2024/01/05 11:01:41;;;;;;;;;;;;;;;6.22;100.00;95205.81;5083256;28;19943;-76
2024/01/05 11:04:27;;;;;;;;;;;;;;;6.23;100.00;95210.78;5083923;28;20119;-77
2024/01/05 11:07:15;;;;;;;;;;;;;;;6.19;100.00;95220.03;5083845;28;19950;-78
2024/01/05 11:10:19;;;;;;;;;;;;;;;6.20;100.00;95221.66;5082714;28;19971;-78
2024/01/05 11:13:14;;;;;;;;;;;;;;;6.24;100.00;95211.59;5082109;28;19954;-78
2024/01/05 11:16:01;;;;;;;;;;;;;;;6.23;100.00;95204.78;5082814;28;19937;-78
2024/01/05 11:18:55;;;;;;;;;;;;;;;6.20;100.00;95211.22;5083082;28;19939;-72
2024/01/05 11:21:54;;;;;;;;;;;;;;;6.22;100.00;95206.59;5068819;28;19948;-72
2024/01/05 11:24:41;;;;;;;;;;;;;;;6.26;100.00;95217.38;5083035;28;19945;-72
2024/01/05 11:27:33;;;;;;;;;;;;;;;6.26;100.00;95201.75;5082897;28;19961;-72
2024/01/05 11:30:37;;;;;;;;;;;;;;;6.26;100.00;95201.75;5082663;28;19941;-72
2024/01/05 11:33:42;;;;;;;;;;;;;;;6.25;100.00;95195.72;5082829;28;20146;-72
2024/01/05 11:36:46;;;;;;;;;;;;;;;6.27;100.00;95185.09;5083487;28;20238;-73
2024/01/05 11:39:40;;;;;;;;;;;;;;;6.33;100.00;95183.44;5082610;28;19938;-70
2024/01/05 11:42:27;;;;;;;;;;;;;;;6.36;100.00;95177.78;5083623;28;20118;-70
2024/01/05 11:45:13;;;;;;;;;;;;;;;6.54;100.00;95172.50;5083460;28;19943;-70
2024/01/05 11:47:58;;;;;;;;;;;;;;;6.91;100.00;95167.91;5083485;28;20125;-71
2024/01/05 11:50:44;;;;;;;;;;;;;;;6.97;100.00;95165.41;5082811;28;20102;-70
2024/01/05 11:53:30;;;;;;;;;;;;;;;6.93;100.00;95180.72;5082471;28;19939;-70
2024/01/05 11:56:17;;;;;;;;;;;;;;;6.89;100.00;95175.16;5082421;28;19939;-69
2024/01/05 11:59:03;;;;;;;;;;;;;;;6.85;100.00;95174.03;5083114;28;20214;-75
2024/01/05 12:01:55;;;;;;;;;;;;;;;6.90;100.00;95181.16;5083369;28;20133;-74
2024/01/05 12:04:45;;;;;;;;;;;;;;;6.91;100.00;95170.53;5082372;28;19943;-75
2024/01/05 12:07:31;;;;;;;;;;;;;;;6.86;100.00;95182.63;5083212;28;20006;-75
2024/01/05 12:10:22;;;;;;;;;;;;;;;6.79;100.00;95187.94;5082149;28;19976;-75
2024/01/05 12:13:07;;;;;;;;;;;;;;;6.75;100.00;95180.81;5083276;28;20239;-77
2024/01/05 12:15:54;;;;;;;;;;;;;;;6.69;100.00;95172.06;5083267;28;19947;-74
2024/01/05 12:18:44;;;;;;;;;;;;;;;6.63;100.00;95176.34;5082484;28;19942;-75
2024/01/05 12:21:30;;;;;;;;;;;;;;;6.56;100.00;95162.66;5082984;28;19942;-74
2024/01/05 12:24:15;;;;;;;;;;;;;;;7.02;100.00;95170.75;5071688;28;20118;-78
2024/01/05 12:27:01;;;;;;;;;;;;;;;7.78;100.00;95176.00;5072127;28;19959;-73
2024/01/05 12:29:47;;;;;;;;;;;;;;;8.40;100.00;95160.44;5085652;28;19950;-76
2024/01/05 12:32:33;;;;;;;;;;;;;;;8.48;100.00;95135.75;5085750;28;19935;-75
2024/01/05 12:35:19;;;;;;;;;;;;;;;8.28;100.00;95126.53;5085600;28;19939;-70
2024/01/05 12:38:05;;;;;;;;;;;;;;;8.40;100.00;95131.69;5085585;28;20132;-70
2024/01/05 12:40:52;;;;;;;;;;;;;;;8.36;100.00;95109.69;5085812;28;19949;-70
2024/01/05 12:43:38;;;;;;;;;;;;;;;8.17;100.00;95101.28;5085495;28;20025;-69
2024/01/05 12:46:24;;;;;;;;;;;;;;;7.98;100.00;95100.69;5085404;28;20146;-69
2024/01/05 12:49:23;;;;;;;;;;;;;;;7.84;100.00;95102.78;5085498;28;20112;-73
2024/01/05 12:52:09;;;;;;;;;;;;;;;7.77;100.00;95114.38;5085358;28;19945;-73
2024/01/05 12:54:54;;;;;;;;;;;;;;;7.65;100.00;95109.22;5071426;28;19937;-73
2024/01/05 12:57:40;;;;;;;;;;;;;;;7.56;100.00;95113.19;5085253;28;19950;-73
2024/01/05 13:00:26;;;;;;;;;;;;;;;7.49;100.00;95124.53;5085249;28;20253;-73
2024/01/05 13:03:13;;;;;;;;;;;;;;;7.38;100.00;95114.16;5086187;28;19952;-73
2024/01/05 13:06:08;;;;;;;;;;;;;;;7.29;100.00;95119.72;5084977;28;19956;-73
2024/01/05 13:08:55;;;;;;;;;;;;;;;7.24;100.00;95116.22;5085142;28;19956;-74
2024/01/05 13:11:49;;;;;;;;;;;;;;;7.20;100.00;95115.91;5085225;28;19979;-73